Terminal Aerodrome Forecast
Issued by NWS Sterling, VA

Current Version | Previous Version | Text Only | Print | Product List | Glossary Off
Versions: 1 2 3 4 5 6 7 8 9 10 11 12 13 14 15 16 17 18 19 20 21 22 23 24 25 26 27 28 29

000
FTUS41 KLWX 241400 AAA
TAFIAD
TAF AMD
KIAD 241457Z 2415/2518 14007KT 5SM -RA OVC012 WS020/19040KT
     FM241700 19009KT 2SM RA OVC008 WS020/19045KT
     FM242200 19012KT 2SM SHRA OVC008
     FM250100 18015KT 3SM -SHRA VCTS OVC010CB
     FM250300 19014KT 3SM -SHRA OVC008
     FM250500 24013KT 4SM -SHRA OVC008
     FM250800 28012KT P6SM OVC050
     FM251100 28010KT P6SM SCT200
     FM251500 27013G24KT P6SM SCT250
     FM251700 28015G28KT P6SM SCT045=

USA.gov is the U.S. government's official web portal to all federal, state and local government web resources and services.